Time;durP1;ratioP1;P1;durP2;ratioP2;P2;SDS_P1;SDS_P2;PMS_P1;PMS_P2;Temp;Humidity;BMP_temperature;BMP_pressure;BME280_temperature;BME280_humidity;BME280_pressure;Samples;Min_cycle;Max_cycle;Signal;HPM_P1;HPM_P2
2022/07/25 00:00:56;;;;;;;2.35;1.35;;;23.40;67.80;;;;;;5070533;28;20811;-66
2022/07/25 00:03:22;;;;;;;6.70;1.40;;;23.40;67.80;;;;;;5068562;28;20193;-67
2022/07/25 00:05:49;;;;;;;3.83;1.30;;;23.40;67.90;;;;;;5068929;28;20820;-68
2022/07/25 00:08:17;;;;;;;2.05;1.15;;;23.40;67.90;;;;;;5088397;28;20190;-67
2022/07/25 00:10:43;;;;;;;2.67;1.40;;;23.30;68.00;;;;;;5087501;28;20277;-66
2022/07/25 00:13:10;;;;;;;2.73;1.47;;;23.30;68.20;;;;;;5064777;28;20218;-66
2022/07/25 00:15:36;;;;;;;1.77;1.20;;;23.30;68.30;;;;;;5086627;28;20269;-67
2022/07/25 00:18:03;;;;;;;2.13;1.17;;;23.30;68.20;;;;;;5087530;28;20288;-69
2022/07/25 00:20:29;;;;;;;1.85;1.00;;;23.30;68.70;;;;;;5073993;28;20194;-66
2022/07/25 00:22:56;;;;;;;4.13;1.43;;;23.30;68.60;;;;;;5066816;28;20285;-66
2022/07/25 00:25:25;;;;;;;2.57;1.20;;;23.30;69.00;;;;;;5069275;28;20248;-66
2022/07/25 00:27:52;;;;;;;2.23;1.10;;;23.20;69.20;;;;;;5085184;28;20885;-66
2022/07/25 00:30:18;;;;;;;3.40;1.10;;;23.20;69.40;;;;;;5071308;28;20190;-66
2022/07/25 00:32:44;;;;;;;3.27;1.40;;;23.20;69.60;;;;;;5087693;28;20214;-69
2022/07/25 00:35:11;;;;;;;6.23;1.20;;;23.10;69.80;;;;;;5087310;28;20350;-67
2022/07/25 00:37:37;;;;;;;4.50;1.50;;;23.10;69.90;;;;;;5087760;28;20186;-67
2022/07/25 00:40:04;;;;;;;2.70;1.30;;;23.10;70.20;;;;;;5087860;28;20182;-68
2022/07/25 00:42:32;;;;;;;1.80;1.20;;;23.10;70.30;;;;;;5070387;28;20173;-67
2022/07/25 00:44:58;;;;;;;2.80;1.37;;;23.10;70.50;;;;;;5088342;28;20194;-67
2022/07/25 00:47:25;;;;;;;4.87;1.20;;;23.10;70.60;;;;;;5066486;28;20194;-67
2022/07/25 00:49:51;;;;;;;2.13;1.33;;;23.10;70.70;;;;;;5073426;28;20962;-66
2022/07/25 00:52:18;;;;;;;1.97;1.43;;;23.10;70.70;;;;;;5087187;28;21037;-68
2022/07/25 00:54:46;;;;;;;1.90;1.37;;;23.10;70.80;;;;;;5086362;28;20232;-67
2022/07/25 00:57:12;;;;;;;1.93;1.40;;;23.10;70.80;;;;;;5080514;28;20189;-68
2022/07/25 00:59:38;;;;;;;4.43;1.40;;;23.00;70.90;;;;;;5086584;28;20992;-67
2022/07/25 01:02:05;;;;;;;2.50;1.40;;;23.00;70.90;;;;;;5078308;28;20218;-68
2022/07/25 01:04:31;;;;;;;4.23;1.30;;;23.00;70.90;;;;;;5086735;28;20194;-67
2022/07/25 01:06:59;;;;;;;5.30;1.27;;;23.00;71.20;;;;;;5074011;28;20581;-66
2022/07/25 01:09:26;;;;;;;1.93;1.20;;;23.00;70.90;;;;;;5071112;28;20750;-66
2022/07/25 01:11:52;;;;;;;2.20;1.37;;;22.90;70.70;;;;;;5076302;28;20194;-68
2022/07/25 01:14:19;;;;;;;1.67;1.20;;;22.90;70.90;;;;;;5090883;28;20655;-68
2022/07/25 01:16:46;;;;;;;1.93;1.17;;;22.90;71.40;;;;;;5084900;28;20213;-67
2022/07/25 01:19:12;;;;;;;1.73;1.40;;;22.90;71.10;;;;;;5086085;28;20214;-67
2022/07/25 01:21:42;;;;;;;2.03;1.00;;;22.90;71.30;;;;;;5069399;28;20190;-68
2022/07/25 01:24:09;;;;;;;4.57;1.30;;;23.00;71.20;;;;;;5068771;28;20669;-67
2022/07/25 01:26:37;;;;;;;3.30;1.37;;;23.00;71.20;;;;;;5085552;28;20198;-67
2022/07/25 01:29:04;;;;;;;2.40;1.20;;;23.00;71.20;;;;;;5050641;28;20186;-67
2022/07/25 01:31:31;;;;;;;3.63;1.67;;;23.00;71.40;;;;;;5086621;28;20265;-67
2022/07/25 01:33:57;;;;;;;4.63;1.40;;;22.90;71.40;;;;;;5057494;28;20214;-66
2022/07/25 01:36:23;;;;;;;4.67;1.50;;;22.90;71.70;;;;;;5064531;28;20658;-68
2022/07/25 01:38:49;;;;;;;2.37;1.20;;;22.90;71.80;;;;;;5060636;28;20186;-67
2022/07/25 01:41:16;;;;;;;4.37;1.40;;;22.90;71.80;;;;;;5085510;28;20178;-67
2022/07/25 01:43:42;;;;;;;1.40;1.20;;;22.90;72.30;;;;;;5086200;28;20193;-66
2022/07/25 01:46:09;;;;;;;3.97;1.30;;;22.90;72.30;;;;;;5085973;28;20178;-69
2022/07/25 01:48:37;;;;;;;3.03;1.30;;;22.80;72.40;;;;;;5084912;28;20244;-67
2022/07/25 01:51:04;;;;;;;4.30;1.20;;;22.80;72.40;;;;;;5054699;28;20194;-67
2022/07/25 01:53:30;;;;;;;3.93;1.20;;;22.80;72.50;;;;;;5086232;28;20328;-68
2022/07/25 01:55:56;;;;;;;3.87;1.27;;;22.80;72.40;;;;;;5086437;28;20340;-66
2022/07/25 01:58:23;;;;;;;2.63;1.40;;;22.80;72.50;;;;;;5086074;28;20183;-68
2022/07/25 02:00:49;;;;;;;3.33;1.40;;;22.70;72.40;;;;;;5085722;28;20591;-67
2022/07/25 02:03:31;;;;;;;1.90;1.20;;;22.70;72.30;;;;;;5072256;28;20263;-66
2022/07/25 02:06:04;;;;;;;3.23;1.30;;;22.60;72.50;;;;;;5083761;28;20189;-69
2022/07/25 02:08:32;;;;;;;2.70;1.23;;;22.60;72.70;;;;;;5086836;28;20185;-67
2022/07/25 02:10:59;;;;;;;5.70;1.57;;;22.60;72.80;;;;;;5075956;28;20192;-69
2022/07/25 02:13:26;;;;;;;2.60;1.30;;;22.50;72.70;;;;;;5066774;28;20206;-66
2022/07/25 02:15:53;;;;;;;3.27;1.23;;;22.50;73.30;;;;;;5068640;28;20741;-68
2022/07/25 02:18:19;;;;;;;2.63;1.17;;;22.50;73.20;;;;;;5078429;28;20182;-68
2022/07/25 02:20:46;;;;;;;4.30;1.20;;;22.50;72.90;;;;;;5067460;28;20182;-66
2022/07/25 02:23:14;;;;;;;5.23;1.37;;;22.50;73.10;;;;;;5085408;28;20289;-67
2022/07/25 02:25:41;;;;;;;2.10;1.33;;;22.50;73.10;;;;;;5085729;28;20186;-66
2022/07/25 02:28:07;;;;;;;1.97;1.20;;;22.50;73.20;;;;;;5072451;28;20194;-66
2022/07/25 02:30:33;;;;;;;4.37;1.30;;;22.50;73.30;;;;;;5065762;28;20213;-68
2022/07/25 02:33:00;;;;;;;1.47;1.10;;;22.40;73.20;;;;;;5085800;28;20229;-67
2022/07/25 02:35:27;;;;;;;3.93;1.17;;;22.50;73.20;;;;;;5085126;28;20186;-67
2022/07/25 02:37:54;;;;;;;4.37;1.30;;;22.40;73.00;;;;;;5082174;28;20221;-67
2022/07/25 02:40:20;;;;;;;2.27;1.30;;;22.40;73.00;;;;;;5064509;28;20205;-66
2022/07/25 02:42:46;;;;;;;8.87;1.40;;;22.30;72.80;;;;;;5067877;28;20674;-67
2022/07/25 02:45:13;;;;;;;3.40;1.17;;;22.30;72.70;;;;;;5081666;28;20293;-68
2022/07/25 02:47:39;;;;;;;9.77;1.20;;;22.30;72.50;;;;;;5087088;28;20573;-66
2022/07/25 02:50:06;;;;;;;3.60;1.07;;;22.20;72.80;;;;;;5081379;28;20281;-69
2022/07/25 02:52:33;;;;;;;1.17;1.03;;;22.20;72.00;;;;;;5067403;28;20194;-67
2022/07/25 02:55:00;;;;;;;4.07;1.43;;;22.30;72.00;;;;;;5070399;28;20233;-66
2022/07/25 02:57:27;;;;;;;8.10;1.30;;;22.20;71.90;;;;;;5084027;28;20269;-67
2022/07/25 02:59:53;;;;;;;4.87;1.50;;;22.20;72.10;;;;;;5087624;28;20198;-67
2022/07/25 03:02:19;;;;;;;5.17;1.27;;;22.10;72.40;;;;;;5088648;28;21644;-67
2022/07/25 03:04:45;;;;;;;2.37;1.40;;;22.10;72.40;;;;;;5089604;28;20221;-66
2022/07/25 03:07:12;;;;;;;3.87;1.33;;;22.00;72.50;;;;;;5053348;28;20848;-67
2022/07/25 03:09:40;;;;;;;2.80;1.57;;;22.10;72.60;;;;;;5088005;28;20191;-66
2022/07/25 03:12:06;;;;;;;1.77;1.30;;;22.10;72.80;;;;;;5089956;28;20221;-67
2022/07/25 03:14:32;;;;;;;1.63;1.20;;;22.10;72.80;;;;;;5088101;28;20214;-67
2022/07/25 03:17:01;;;;;;;5.80;1.40;;;22.10;72.40;;;;;;5078681;28;20237;-67
2022/07/25 03:19:28;;;;;;;3.87;1.47;;;22.10;73.00;;;;;;5087998;28;20186;-66
2022/07/25 03:21:54;;;;;;;3.13;1.30;;;22.10;73.40;;;;;;5083866;28;20289;-66
2022/07/25 03:24:21;;;;;;;4.00;1.30;;;22.10;73.60;;;;;;5087802;28;20198;-67
2022/07/25 03:26:47;;;;;;;3.03;1.30;;;22.10;73.80;;;;;;5087163;28;20198;-67
2022/07/25 03:29:17;;;;;;;3.37;1.20;;;22.10;73.70;;;;;;5069247;28;20213;-67
2022/07/25 03:31:43;;;;;;;2.90;1.17;;;22.20;73.70;;;;;;5068407;28;20183;-69
2022/07/25 03:34:11;;;;;;;2.83;1.10;;;22.20;73.30;;;;;;5090320;28;20218;-68
2022/07/25 03:36:39;;;;;;;3.80;1.30;;;22.20;73.20;;;;;;5088949;28;20190;-67
2022/07/25 03:39:05;;;;;;;1.90;1.00;;;22.20;73.10;;;;;;5078190;28;20184;-68
2022/07/25 03:41:33;;;;;;;4.43;1.30;;;22.20;72.50;;;;;;5091633;28;20182;-67
2022/07/25 03:43:59;;;;;;;1.67;1.30;;;22.20;72.40;;;;;;5072394;28;20198;-69
2022/07/25 03:46:25;;;;;;;2.43;1.20;;;22.20;72.50;;;;;;5091065;28;20231;-68
2022/07/25 03:48:51;;;;;;;5.30;1.20;;;22.30;72.90;;;;;;5090948;28;20201;-67
2022/07/25 03:51:21;;;;;;;2.33;1.17;;;22.30;72.50;;;;;;5056191;28;20182;-66
2022/07/25 03:54:02;;;;;;;4.13;0.80;;;22.30;72.90;;;;;;5072794;28;20210;-66
2022/07/25 03:56:47;;;;;;;4.87;1.13;;;22.30;72.80;;;;;;5090866;28;20181;-66
2022/07/25 03:59:17;;;;;;;3.47;1.27;;;22.30;73.20;;;;;;5090662;28;20880;-67
2022/07/25 04:01:45;;;;;;;5.10;1.33;;;22.30;73.50;;;;;;5091188;28;20166;-66
2022/07/25 04:04:12;;;;;;;2.57;1.10;;;22.30;74.00;;;;;;5080656;28;20289;-66
2022/07/25 04:06:39;;;;;;;4.13;1.20;;;22.30;73.90;;;;;;5087699;28;20251;-68
2022/07/25 04:09:08;;;;;;;1.97;1.20;;;22.30;73.40;;;;;;5091119;28;20994;-67
2022/07/25 04:11:35;;;;;;;4.10;1.10;;;22.40;73.70;;;;;;5091037;28;20182;-67
2022/07/25 04:14:01;;;;;;;3.00;1.37;;;22.40;73.80;;;;;;5091020;28;20206;-66
2022/07/25 04:16:28;;;;;;;3.70;1.20;;;22.40;74.00;;;;;;5090264;28;20207;-67
2022/07/25 04:18:56;;;;;;;1.33;1.10;;;22.40;74.50;;;;;;5090531;28;20209;-66
2022/07/25 04:21:24;;;;;;;3.93;1.17;;;22.50;74.50;;;;;;5090955;28;20210;-67
2022/07/25 04:23:51;;;;;;;2.23;1.20;;;22.50;74.60;;;;;;5055372;28;20716;-66
2022/07/25 04:26:18;;;;;;;2.50;1.10;;;22.60;74.90;;;;;;5088435;28;20734;-69
2022/07/25 04:28:44;;;;;;;3.27;1.20;;;22.60;75.00;;;;;;5090750;28;20193;-67
2022/07/25 04:31:11;;;;;;;5.33;1.10;;;22.70;75.40;;;;;;5090934;28;20178;-67
2022/07/25 04:33:38;;;;;;;1.70;0.90;;;22.70;75.90;;;;;;5090136;28;20270;-68
2022/07/25 04:36:05;;;;;;;3.27;1.27;;;22.80;76.30;;;;;;5085175;28;20227;-66
2022/07/25 04:38:34;;;;;;;4.37;1.00;;;22.90;76.50;;;;;;5080475;28;20277;-66
2022/07/25 04:41:02;;;;;;;2.70;0.83;;;23.00;76.80;;;;;;5064912;28;20210;-66
2022/07/25 04:43:28;;;;;;;3.27;0.90;;;23.10;77.20;;;;;;5071919;28;20251;-67
2022/07/25 04:45:54;;;;;;;6.33;1.00;;;23.20;77.10;;;;;;5071898;28;20253;-67
2022/07/25 04:48:20;;;;;;;3.67;1.30;;;23.30;77.20;;;;;;5089527;28;20659;-66
2022/07/25 04:50:47;;;;;;;2.13;1.37;;;23.30;77.50;;;;;;5071996;28;20276;-66
2022/07/25 04:53:13;;;;;;;3.53;1.20;;;23.40;78.70;;;;;;5088843;28;20201;-66
2022/07/25 04:55:39;;;;;;;2.30;1.07;;;23.50;79.30;;;;;;5090033;28;20186;-67
2022/07/25 04:58:06;;;;;;;9.73;1.47;;;23.60;80.00;;;;;;5089420;28;20179;-67
2022/07/25 05:00:33;;;;;;;3.33;1.10;;;23.70;80.80;;;;;;5088745;28;20284;-67
2022/07/25 05:02:59;;;;;;;2.67;1.20;;;23.80;81.10;;;;;;5089746;28;20184;-66
2022/07/25 05:05:26;;;;;;;3.20;1.20;;;23.80;81.40;;;;;;5071729;28;20277;-66
2022/07/25 05:07:59;;;;;;;2.30;1.30;;;23.90;82.30;;;;;;5089321;28;20338;-67
2022/07/25 05:10:28;;;;;;;2.25;1.10;;;24.00;81.80;;;;;;5054037;28;20182;-66
2022/07/25 05:12:55;;;;;;;2.43;1.20;;;24.10;81.80;;;;;;5070971;28;20194;-68
2022/07/25 05:15:22;;;;;;;3.60;1.10;;;24.10;82.00;;;;;;5071494;28;20193;-68
2022/07/25 05:17:48;;;;;;;3.08;1.00;;;24.20;81.80;;;;;;5070466;28;20351;-67
2022/07/25 05:20:15;;;;;;;3.03;1.17;;;24.20;81.50;;;;;;5054700;28;20194;-67
2022/07/25 05:22:43;;;;;;;2.90;1.30;;;24.30;79.60;;;;;;5088287;28;20658;-66
2022/07/25 05:25:10;;;;;;;10.23;1.40;;;24.40;80.80;;;;;;5089089;28;20175;-66
2022/07/25 05:27:38;;;;;;;1.95;1.30;;;24.50;79.50;;;;;;5070369;28;20540;-67
2022/07/25 05:30:07;;;;;;;3.65;1.35;;;24.60;80.60;;;;;;5054261;28;20186;-66
2022/07/25 05:32:33;;;;;;;2.40;1.15;;;24.70;80.20;;;;;;5089577;28;20190;-68
2022/07/25 05:35:00;;;;;;;6.22;1.40;;;24.70;80.10;;;;;;5088760;28;20230;-66
2022/07/25 05:37:26;;;;;;;1.90;1.38;;;24.80;79.80;;;;;;5088792;28;20530;-67
2022/07/25 05:39:52;;;;;;;1.10;1.00;;;24.90;79.90;;;;;;5083988;28;20190;-68
2022/07/25 05:42:18;;;;;;;4.30;1.25;;;24.90;79.80;;;;;;5076293;28;20501;-66
2022/07/25 05:44:45;;;;;;;3.58;1.40;;;24.90;78.90;;;;;;5089253;28;20178;-67
2022/07/25 05:47:12;;;;;;;5.40;1.40;;;25.00;78.70;;;;;;5070249;28;20190;-67
2022/07/25 05:49:41;;;;;;;2.30;1.00;;;25.10;80.20;;;;;;5053895;28;20634;-67
2022/07/25 05:52:08;;;;;;;2.78;1.20;;;25.10;79.70;;;;;;5087580;28;20265;-67
2022/07/25 05:54:34;;;;;;;2.60;1.50;;;25.20;78.90;;;;;;5088878;28;20251;-66
2022/07/25 05:57:01;;;;;;;2.28;1.65;;;25.30;79.00;;;;;;5053248;28;20587;-67
2022/07/25 05:59:27;;;;;;;2.58;1.17;;;25.30;77.70;;;;;;5088696;28;20186;-66
2022/07/25 06:01:54;;;;;;;2.88;1.30;;;25.40;78.40;;;;;;5089171;28;20182;-69
2022/07/25 06:04:20;;;;;;;2.53;1.20;;;25.60;79.20;;;;;;5088286;28;20507;-67
2022/07/25 06:06:51;;;;;;;2.97;1.10;;;25.60;79.60;;;;;;5087978;28;20178;-68
2022/07/25 06:09:21;;;;;;;2.35;1.20;;;25.70;78.50;;;;;;5070024;28;20220;-68
2022/07/25 06:11:49;;;;;;;1.70;1.08;;;25.80;78.80;;;;;;5088730;28;20546;-67
2022/07/25 06:14:15;;;;;;;2.75;1.05;;;25.80;78.80;;;;;;5053310;28;20296;-67
2022/07/25 06:16:42;;;;;;;1.48;1.05;;;25.90;78.30;;;;;;5086138;28;20202;-65
2022/07/25 06:19:09;;;;;;;2.25;1.30;;;26.00;79.30;;;;;;5087816;28;20247;-68
2022/07/25 06:21:35;;;;;;;3.97;1.30;;;26.10;79.80;;;;;;5066952;28;20209;-67
2022/07/25 06:24:02;;;;;;;4.38;1.15;;;26.20;79.60;;;;;;5050315;28;20201;-67
2022/07/25 06:26:29;;;;;;;3.63;1.20;;;26.30;79.50;;;;;;5052930;28;20198;-68
2022/07/25 06:28:59;;;;;;;10.55;1.42;;;26.40;77.80;;;;;;5088479;28;20217;-67
2022/07/25 06:31:26;;;;;;;4.18;1.10;;;26.50;74.60;;;;;;5088685;28;20201;-66
2022/07/25 06:33:52;;;;;;;3.53;1.10;;;26.70;75.00;;;;;;5087753;28;20210;-66
2022/07/25 06:36:18;;;;;;;2.42;1.23;;;26.80;74.40;;;;;;5087945;28;20885;-68
2022/07/25 06:38:45;;;;;;;1.70;1.20;;;26.80;76.00;;;;;;5088459;28;20665;-67
2022/07/25 06:41:15;;;;;;;5.00;1.30;;;26.80;76.50;;;;;;5070004;28;20618;-68
2022/07/25 06:43:41;;;;;;;1.60;1.30;;;27.00;74.80;;;;;;5087887;28;20178;-69
2022/07/25 06:46:08;;;;;;;4.07;1.30;;;27.00;75.60;;;;;;5069013;28;20504;-66
2022/07/25 06:48:34;;;;;;;2.50;1.30;;;27.10;76.20;;;;;;5069199;28;20281;-67
2022/07/25 06:51:01;;;;;;;5.35;1.40;;;27.20;76.30;;;;;;5088692;28;20876;-66
2022/07/25 06:53:27;;;;;;;2.95;1.25;;;27.40;75.40;;;;;;5088416;28;20210;-66
2022/07/25 06:55:53;;;;;;;2.53;1.13;;;27.50;74.80;;;;;;5053361;28;20186;-67
2022/07/25 06:58:20;;;;;;;2.67;1.40;;;27.50;75.10;;;;;;5087702;28;20205;-66
2022/07/25 07:00:46;;;;;;;4.65;1.13;;;27.60;74.10;;;;;;5053142;28;20184;-67
2022/07/25 07:03:12;;;;;;;3.55;1.30;;;27.70;74.60;;;;;;5069712;28;20190;-66
2022/07/25 07:05:40;;;;;;;5.20;1.40;;;27.80;73.50;;;;;;5069710;28;20198;-66
2022/07/25 07:08:06;;;;;;;3.08;1.42;;;27.90;74.00;;;;;;5087711;28;20277;-67
2022/07/25 07:10:33;;;;;;;4.90;1.20;;;28.00;72.10;;;;;;5088203;28;20218;-67
2022/07/25 07:13:10;;;;;;;2.78;1.25;;;28.10;72.90;;;;;;5058174;28;20201;-65
2022/07/25 07:15:37;;;;;;;2.83;1.10;;;28.10;72.00;;;;;;5049528;28;20866;-65
2022/07/25 07:18:05;;;;;;;2.25;1.13;;;28.30;71.20;;;;;;5066828;28;20936;-67
2022/07/25 07:20:32;;;;;;;2.22;1.20;;;28.40;71.10;;;;;;5085820;28;20197;-66
2022/07/25 07:22:58;;;;;;;2.70;1.30;;;28.50;70.80;;;;;;5088005;28;20734;-66
2022/07/25 07:25:24;;;;;;;2.92;1.30;;;28.60;70.20;;;;;;5069829;28;20546;-67
2022/07/25 07:27:52;;;;;;;2.47;1.10;;;28.70;70.20;;;;;;5065151;28;20205;-67
2022/07/25 07:30:19;;;;;;;10.30;1.42;;;28.80;69.60;;;;;;5060883;28;20190;-66
2022/07/25 07:32:45;;;;;;;6.43;1.30;;;28.90;68.70;;;;;;5065870;28;20186;-67
2022/07/25 07:35:15;;;;;;;3.63;1.27;;;29.00;67.70;;;;;;5064681;28;21072;-65
2022/07/25 07:37:43;;;;;;;5.63;1.42;;;29.10;63.60;;;;;;5061939;28;20182;-66
2022/07/25 07:40:14;;;;;;;3.47;1.25;;;29.20;66.70;;;;;;5069874;28;20186;-67
2022/07/25 07:42:43;;;;;;;2.75;1.30;;;29.30;68.00;;;;;;5091259;28;20655;-67
2022/07/25 07:45:21;;;;;;;1.55;1.00;;;29.40;67.50;;;;;;5089976;28;20186;-66
2022/07/25 07:47:51;;;;;;;6.40;1.27;;;29.60;67.40;;;;;;5089509;28;20247;-67
2022/07/25 07:50:24;;;;;;;6.38;1.27;;;29.70;66.40;;;;;;5083149;28;20543;-66
2022/07/25 07:52:53;;;;;;;3.97;1.48;;;29.80;66.80;;;;;;5063855;28;20190;-67
2022/07/25 07:58:06;;;;;;;2.45;1.38;;;30.10;67.50;;;;;;5084391;28;20810;-66
2022/07/25 08:00:38;;;;;;;2.30;1.17;;;30.40;69.10;;;;;;5071895;28;20190;-66
2022/07/25 08:03:07;;;;;;;2.72;1.20;;;30.50;68.00;;;;;;5088791;28;20193;-67
2022/07/25 08:05:43;;;;;;;7.65;1.60;;;30.70;68.00;;;;;;5071324;28;20190;-66
2022/07/25 08:08:13;;;;;;;7.47;1.50;;;30.90;69.30;;;;;;5089278;28;20182;-66
2022/07/25 08:10:44;;;;;;;4.20;1.25;;;31.00;68.20;;;;;;5072225;28;20202;-66
2022/07/25 08:13:29;;;;;;;4.15;1.23;;;31.00;66.00;;;;;;5087806;28;20363;-67
2022/07/25 08:15:59;;;;;;;9.02;1.30;;;31.10;68.10;;;;;;5061801;28;20209;-67
2022/07/25 08:18:28;;;;;;;8.75;1.60;;;31.20;67.10;;;;;;5088257;28;20189;-65
2022/07/25 08:21:00;;;;;;;5.97;1.50;;;31.20;65.20;;;;;;5089000;28;20197;-67
2022/07/25 08:23:26;;;;;;;5.43;1.58;;;31.30;67.20;;;;;;5086688;28;20183;-66
2022/07/25 08:25:53;;;;;;;5.13;1.40;;;31.40;64.10;;;;;;5100374;28;20186;-67
2022/07/25 08:28:20;;;;;;;3.55;1.40;;;31.40;63.80;;;;;;5088843;28;20276;-68
2022/07/25 08:30:46;;;;;;;2.38;1.23;;;31.50;64.90;;;;;;5086674;28;20190;-66
2022/07/25 08:33:16;;;;;;;4.60;1.50;;;31.60;65.80;;;;;;5071747;28;20585;-67
2022/07/25 08:35:50;;;;;;;1.77;1.30;;;31.80;64.60;;;;;;5071709;28;20228;-68
2022/07/25 08:38:18;;;;;;;4.68;1.30;;;31.80;65.60;;;;;;5073552;28;20202;-68
2022/07/25 08:40:44;;;;;;;4.18;1.33;;;32.00;65.50;;;;;;5069117;28;20186;-66
2022/07/25 08:43:13;;;;;;;6.70;1.50;;;32.00;65.60;;;;;;5090167;28;20209;-65
2022/07/25 08:45:52;;;;;;;9.02;1.95;;;32.10;65.30;;;;;;5088175;28;20186;-66
2022/07/25 08:48:23;;;;;;;4.47;1.40;;;32.20;65.10;;;;;;5088313;28;20190;-66
2022/07/25 08:50:55;;;;;;;4.18;1.40;;;32.30;64.50;;;;;;5072483;28;20272;-67
2022/07/25 08:53:26;;;;;;;8.07;1.30;;;32.50;65.00;;;;;;5074440;28;20276;-66
2022/07/25 08:55:52;;;;;;;8.65;1.63;;;32.70;63.70;;;;;;5062715;28;20737;-67
2022/07/25 08:58:19;;;;;;;4.93;1.38;;;32.70;64.50;;;;;;5089753;28;20546;-66
2022/07/25 09:00:46;;;;;;;4.60;1.60;;;32.80;63.20;;;;;;5089887;28;20225;-67
2022/07/25 09:03:12;;;;;;;3.85;1.10;;;32.80;63.20;;;;;;5068252;28;20267;-68
2022/07/25 09:05:39;;;;;;;4.30;1.33;;;32.80;62.50;;;;;;5071059;28;20185;-66
2022/07/25 09:08:16;;;;;;;5.43;1.30;;;32.80;62.80;;;;;;5085418;28;20236;-66
2022/07/25 09:10:51;;;;;;;3.05;1.30;;;32.90;62.00;;;;;;5084502;28;20266;-69
2022/07/25 09:13:22;;;;;;;4.10;1.23;;;33.00;62.00;;;;;;5048889;28;20333;-66
2022/07/25 09:15:52;;;;;;;11.93;1.77;;;33.00;61.40;;;;;;5064749;28;20187;-67
2022/07/25 09:18:26;;;;;;;5.65;1.38;;;33.10;61.30;;;;;;5083113;28;20543;-68
2022/07/25 09:20:58;;;;;;;6.80;1.23;;;33.20;61.20;;;;;;5088562;28;20182;-67
2022/07/25 09:23:36;;;;;;;2.08;1.20;;;33.30;60.90;;;;;;5082539;28;20213;-67
2022/07/25 09:26:14;;;;;;;8.60;1.35;;;33.30;61.40;;;;;;5070233;28;20189;-67
2022/07/25 09:28:43;;;;;;;2.70;1.42;;;33.50;59.60;;;;;;5089335;28;20189;-67
2022/07/25 09:31:11;;;;;;;7.05;1.40;;;33.50;58.90;;;;;;5089332;28;20182;-66
2022/07/25 09:33:55;;;;;;;3.10;1.42;;;33.50;59.20;;;;;;5088989;28;20240;-67
2022/07/25 09:36:22;;;;;;;7.55;1.40;;;33.50;58.70;;;;;;5050455;28;20229;-66
2022/07/25 09:38:56;;;;;;;6.70;1.30;;;33.60;58.60;;;;;;5051157;28;20191;-66
2022/07/25 09:41:38;;;;;;;7.82;1.40;;;33.60;57.40;;;;;;5056173;28;20189;-65
2022/07/25 09:44:21;;;;;;;2.78;1.30;;;33.70;56.50;;;;;;5100123;28;20207;-66
2022/07/25 09:46:48;;;;;;;4.22;1.45;;;33.80;55.40;;;;;;5054785;28;20194;-66
2022/07/25 09:49:15;;;;;;;6.70;1.50;;;33.80;55.10;;;;;;5088924;28;20194;-67
2022/07/25 09:51:42;;;;;;;8.90;1.23;;;33.80;54.50;;;;;;5071789;28;20178;-67
2022/07/25 09:54:09;;;;;;;2.08;1.10;;;34.00;53.10;;;;;;5070755;28;20305;-66
2022/07/25 09:56:35;;;;;;;8.48;1.10;;;34.20;54.50;;;;;;5076309;28;20185;-66
2022/07/25 09:59:04;;;;;;;4.60;1.27;;;34.30;53.80;;;;;;5109474;28;20252;-64
2022/07/25 10:01:59;;;;;;;3.17;1.10;;;34.30;54.50;;;;;;5089458;28;20198;-66
2022/07/25 10:05:18;;;;;;;4.05;1.20;;;34.40;54.90;;;;;;5067061;28;20190;-68
2022/07/25 10:07:53;;;;;;;4.78;1.17;;;34.30;54.70;;;;;;5033761;28;20214;-67
2022/07/25 10:10:32;;;;;;;6.03;1.30;;;34.40;53.80;;;;;;5083101;28;20208;-67
2022/07/25 10:13:16;;;;;;;5.55;1.27;;;34.40;54.60;;;;;;5060281;28;20921;-67
2022/07/25 10:15:51;;;;;;;9.82;1.58;;;34.50;54.20;;;;;;5069787;28;20211;-65
2022/07/25 10:18:27;;;;;;;6.60;1.38;;;34.50;53.90;;;;;;5087431;28;20184;-64
2022/07/25 10:21:09;;;;;;;4.47;1.13;;;34.50;54.10;;;;;;5079197;28;20229;-65
2022/07/25 10:23:36;;;;;;;8.07;1.15;;;34.50;53.90;;;;;;5070483;28;20178;-65
2022/07/25 10:26:18;;;;;;;4.30;1.20;;;34.60;54.00;;;;;;5078151;28;20522;-65
2022/07/25 10:28:48;;;;;;;4.20;1.20;;;34.70;53.50;;;;;;5078987;28;20197;-64
2022/07/25 10:31:38;;;;;;;2.33;1.10;;;34.50;53.10;;;;;;5070272;28;20198;-64
2022/07/25 10:34:09;;;;;;;4.10;1.10;;;34.50;52.20;;;;;;5063271;28;20218;-63
2022/07/25 10:36:52;;;;;;;10.05;1.33;;;34.60;52.10;;;;;;5086065;28;20178;-63
2022/07/25 10:39:21;;;;;;;3.30;1.00;;;34.70;52.30;;;;;;5053422;28;20189;-65
2022/07/25 10:42:01;;;;;;;6.18;1.40;;;34.70;52.20;;;;;;5062791;28;20228;-66
2022/07/25 10:44:49;;;;;;;5.25;1.40;;;34.70;50.90;;;;;;5069941;28;20186;-64
2022/07/25 10:47:17;;;;;;;8.85;1.20;;;34.60;51.60;;;;;;5069043;28;20281;-64
2022/07/25 10:49:56;;;;;;;3.22;1.00;;;34.80;51.50;;;;;;5085998;28;20244;-65
2022/07/25 10:52:28;;;;;;;2.85;1.13;;;34.70;51.50;;;;;;5069809;28;20189;-65
2022/07/25 10:55:00;;;;;;;3.58;1.00;;;34.70;51.40;;;;;;5052878;28;20210;-64
2022/07/25 10:57:29;;;;;;;8.48;1.10;;;34.70;53.10;;;;;;5083261;28;20660;-63
2022/07/25 11:00:07;;;;;;;5.22;1.13;;;34.80;52.40;;;;;;5088317;28;20174;-63
2022/07/25 11:02:34;;;;;;;4.95;1.33;;;34.80;52.20;;;;;;5069569;28;20311;-65
2022/07/25 11:05:03;;;;;;;2.38;1.50;;;34.70;53.60;;;;;;5069387;28;20318;-65
2022/07/25 11:07:39;;;;;;;8.25;1.30;;;34.80;53.00;;;;;;5073546;28;20941;-65
2022/07/25 11:10:06;;;;;;;4.32;1.30;;;34.70;51.70;;;;;;5052825;28;20185;-64
2022/07/25 11:12:32;;;;;;;3.55;1.00;;;34.50;51.80;;;;;;5070071;28;20194;-65
2022/07/25 11:15:06;;;;;;;5.05;1.20;;;34.40;52.60;;;;;;5091388;28;20237;-64
2022/07/25 11:17:33;;;;;;;3.67;0.98;;;34.40;52.40;;;;;;5072576;28;20213;-64
2022/07/25 11:20:09;;;;;;;1.80;1.08;;;34.60;52.00;;;;;;5091377;28;20235;-66
2022/07/25 11:22:35;;;;;;;3.97;1.00;;;34.50;52.20;;;;;;5077065;28;20280;-64
2022/07/25 11:25:12;;;;;;;5.13;1.20;;;34.40;53.60;;;;;;5092890;28;20185;-64
2022/07/25 11:27:39;;;;;;;5.80;1.33;;;34.40;53.70;;;;;;5086245;28;20221;-64
2022/07/25 11:30:11;;;;;;;8.20;1.20;;;34.50;53.50;;;;;;5087905;28;20190;-64
2022/07/25 11:32:44;;;;;;;2.97;1.30;;;34.40;53.00;;;;;;5069397;28;20225;-64
2022/07/25 11:35:13;;;;;;;4.85;1.27;;;34.50;52.60;;;;;;5086481;28;21070;-64
2022/07/25 11:37:47;;;;;;;4.95;1.30;;;34.40;52.70;;;;;;5090433;28;20193;-63
2022/07/25 11:40:17;;;;;;;3.05;1.15;;;34.50;52.60;;;;;;5091298;28;20197;-63
2022/07/25 11:42:50;;;;;;;5.70;1.20;;;34.40;52.40;;;;;;5084729;28;20260;-65
2022/07/25 11:45:27;;;;;;;3.75;1.20;;;34.40;51.50;;;;;;5095598;28;20196;-67
2022/07/25 11:48:08;;;;;;;9.43;1.25;;;34.40;52.30;;;;;;5068905;28;20201;-65
2022/07/25 11:50:40;;;;;;;6.53;1.13;;;34.20;52.70;;;;;;5071836;28;20246;-64
2022/07/25 11:53:13;;;;;;;1.83;1.05;;;34.20;54.40;;;;;;5089664;28;20178;-65
2022/07/25 11:55:41;;;;;;;6.47;1.30;;;34.10;53.70;;;;;;5056750;28;20187;-65
2022/07/25 11:58:13;;;;;;;2.72;1.30;;;34.10;55.60;;;;;;5089461;28;20197;-67
2022/07/25 12:00:47;;;;;;;10.82;1.40;;;34.10;55.60;;;;;;5084639;28;20196;-65
2022/07/25 12:03:17;;;;;;;3.92;1.30;;;34.10;56.70;;;;;;5086623;28;20899;-64
2022/07/25 12:05:45;;;;;;;5.18;1.60;;;34.10;56.50;;;;;;5055123;28;20861;-64
2022/07/25 12:08:21;;;;;;;3.60;1.30;;;34.00;57.70;;;;;;5087148;28;20734;-68
2022/07/25 12:11:26;;;;;;;7.43;1.33;;;34.10;58.30;;;;;;5029585;28;20195;-64
2022/07/25 12:14:03;;;;;;;3.70;1.30;;;34.10;56.60;;;;;;5007459;28;20260;-64
2022/07/25 12:16:31;;;;;;;6.78;1.27;;;34.00;55.90;;;;;;4994261;28;20221;-66
2022/07/25 12:18:57;;;;;;;2.28;1.25;;;34.10;56.30;;;;;;5004044;28;20183;-65
2022/07/25 12:21:25;;;;;;;4.25;1.30;;;34.10;57.10;;;;;;5018086;28;20189;-65
2022/07/25 12:23:52;;;;;;;5.53;1.27;;;34.10;58.00;;;;;;5036208;28;20195;-64
2022/07/25 12:26:19;;;;;;;4.32;1.13;;;34.10;59.20;;;;;;5027460;28;21015;-64
2022/07/25 12:28:45;;;;;;;4.80;1.20;;;34.10;59.30;;;;;;5032855;28;20203;-66
2022/07/25 12:31:12;;;;;;;6.38;1.35;;;34.20;58.70;;;;;;5040102;28;20194;-64
2022/07/25 12:33:38;;;;;;;7.95;1.20;;;34.10;57.90;;;;;;5021147;28;20243;-64
2022/07/25 12:36:05;;;;;;;4.57;1.23;;;34.00;57.90;;;;;;5036321;28;20926;-64
2022/07/25 12:38:31;;;;;;;9.48;1.50;;;34.00;60.00;;;;;;5016213;28;20224;-65
2022/07/25 12:40:57;;;;;;;5.32;1.40;;;33.90;59.30;;;;;;5020662;28;20265;-65
2022/07/25 12:43:24;;;;;;;3.75;1.10;;;33.80;60.00;;;;;;5031502;28;20192;-64
2022/07/25 12:45:52;;;;;;;5.25;1.20;;;33.90;60.00;;;;;;5018795;28;20239;-63
2022/07/25 12:48:18;;;;;;;6.30;1.63;;;33.80;59.40;;;;;;5005695;28;20193;-63
2022/07/25 12:50:45;;;;;;;3.33;1.23;;;33.80;59.20;;;;;;5032468;28;20371;-64
2022/07/25 12:53:12;;;;;;;7.78;1.33;;;33.80;59.00;;;;;;5025910;28;20199;-65
2022/07/25 12:55:40;;;;;;;7.32;1.42;;;33.80;60.20;;;;;;5073462;28;20190;-64
2022/07/25 12:58:07;;;;;;;10.35;1.40;;;33.80;59.80;;;;;;5080166;28;20189;-64